createdAt,value
2022-08-28T00:00:25.010Z,10.15
2022-08-28T00:02:51.543Z,10.25
2022-08-28T00:05:18.318Z,9.52
2022-08-28T00:07:47.932Z,12.95
2022-08-28T00:10:15.660Z,12.70
2022-08-28T00:12:42.154Z,8.90
2022-08-28T00:15:10.595Z,8.70
2022-08-28T00:17:40.269Z,9.15
2022-08-28T00:20:07.133Z,11.95
2022-08-28T00:22:34.185Z,10.70
2022-08-28T00:25:00.654Z,10.65
2022-08-28T00:27:45.931Z,9.43
2022-08-28T00:30:12.489Z,7.97
2022-08-28T00:32:39.027Z,10.65
2022-08-28T00:35:06.765Z,9.63
2022-08-28T00:37:33.814Z,8.48
2022-08-28T00:40:00.360Z,9.00
2022-08-28T00:42:28.568Z,8.90
2022-08-28T00:44:55.050Z,9.07
2022-08-28T00:47:24.637Z,10.75
2022-08-28T00:49:53.116Z,9.63
2022-08-28T00:52:20.429Z,8.40
2022-08-28T00:54:58.402Z,9.23
2022-08-28T00:57:27.277Z,9.25
2022-08-28T00:59:54.187Z,6.82
2022-08-28T01:02:20.792Z,9.52
2022-08-28T01:04:47.776Z,9.00
2022-08-28T01:07:15.220Z,8.40
2022-08-28T01:09:42.587Z,9.15
2022-08-28T01:12:16.355Z,8.40
2022-08-28T01:14:45.880Z,8.75
2022-08-28T01:17:13.355Z,9.00
2022-08-28T01:19:41.017Z,8.73
2022-08-28T01:22:19.873Z,9.18
2022-08-28T01:24:46.480Z,9.48
2022-08-28T01:27:12.947Z,7.05
2022-08-28T01:29:39.526Z,8.68
2022-08-28T01:32:06.055Z,7.47
2022-08-28T01:34:35.141Z,10.23
2022-08-28T01:37:03.709Z,7.20
2022-08-28T01:39:30.541Z,8.40
2022-08-28T01:41:59.593Z,9.27
2022-08-28T01:44:26.781Z,7.80
2022-08-28T01:46:53.669Z,9.85
2022-08-28T01:49:20.191Z,9.60
2022-08-28T01:51:46.875Z,7.68
2022-08-28T01:54:15.085Z,9.57
2022-08-28T01:56:42.601Z,7.90
2022-08-28T01:59:09.152Z,7.50
2022-08-28T02:01:35.770Z,7.32
2022-08-28T02:04:04.497Z,7.85
2022-08-28T02:06:31.766Z,9.00
2022-08-28T02:08:59.045Z,9.18
2022-08-28T02:11:26.129Z,10.57
2022-08-28T02:13:52.857Z,8.63
2022-08-28T02:16:20.877Z,10.77
2022-08-28T02:18:47.430Z,8.60
2022-08-28T02:21:13.968Z,8.73
2022-08-28T02:23:41.236Z,9.02
2022-08-28T02:26:07.891Z,10.57
2022-08-28T02:28:34.411Z,8.50
2022-08-28T02:31:00.967Z,8.90
2022-08-28T02:33:27.552Z,9.18
2022-08-28T02:35:54.060Z,8.80
2022-08-28T02:38:21.162Z,10.10
2022-08-28T02:40:47.665Z,9.73
2022-08-28T02:43:14.117Z,9.27
2022-08-28T02:45:40.577Z,9.68
2022-08-28T02:48:11.960Z,12.07
2022-08-28T02:50:43.557Z,7.97
2022-08-28T02:53:11.727Z,11.60
2022-08-28T02:55:38.265Z,10.50
2022-08-28T02:58:06.878Z,9.90
2022-08-28T03:00:33.944Z,11.75
2022-08-28T03:03:00.533Z,9.25
2022-08-28T03:05:27.011Z,12.02
2022-08-28T03:07:54.701Z,12.45
2022-08-28T03:10:21.774Z,10.05
2022-08-28T03:12:48.341Z,10.77
2022-08-28T03:15:14.824Z,9.57
2022-08-28T03:17:41.936Z,11.75
2022-08-28T03:20:08.764Z,9.25
2022-08-28T03:22:53.862Z,9.82
2022-08-28T03:25:22.343Z,9.95
2022-08-28T03:27:49.071Z,9.68
2022-08-28T03:30:15.619Z,11.60
2022-08-28T03:32:42.236Z,10.25
2022-08-28T03:35:08.863Z,8.30
2022-08-28T03:37:35.877Z,8.55
2022-08-28T03:40:02.523Z,9.70
2022-08-28T03:42:29.086Z,8.80
2022-08-28T03:44:55.821Z,11.63
2022-08-28T03:47:22.655Z,10.18
2022-08-28T03:49:54.794Z,14.38
2022-08-28T03:52:21.268Z,9.77
2022-08-28T03:54:48.211Z,9.43
2022-08-28T03:57:19.176Z,8.77
2022-08-28T03:59:46.962Z,11.63
2022-08-28T04:02:13.506Z,9.82
2022-08-28T04:04:40.022Z,10.77
2022-08-28T04:07:06.531Z,10.25
2022-08-28T04:09:33.078Z,11.75
2022-08-28T04:11:59.711Z,10.32
2022-08-28T04:14:26.242Z,10.48
2022-08-28T04:16:52.820Z,11.27
2022-08-28T04:19:19.386Z,11.43
2022-08-28T04:21:46.670Z,14.70
2022-08-28T04:24:13.808Z,12.50
2022-08-28T04:26:42.128Z,14.38
2022-08-28T04:29:08.612Z,13.88
2022-08-28T04:31:35.379Z,15.77
2022-08-28T04:34:02.304Z,13.95
2022-08-28T04:36:29.051Z,16.50
2022-08-28T04:38:55.861Z,17.88
2022-08-28T04:41:23.016Z,15.27
2022-08-28T04:43:51.142Z,15.85
2022-08-28T04:46:17.656Z,14.30
2022-08-28T04:48:44.268Z,15.23
2022-08-28T04:51:11.242Z,14.38
2022-08-28T04:53:38.109Z,13.10
2022-08-28T04:56:05.516Z,14.25
2022-08-28T04:58:33.587Z,14.15
2022-08-28T05:01:00.250Z,14.43
2022-08-28T05:03:26.878Z,15.70
2022-08-28T05:05:53.763Z,21.35
2022-08-28T05:08:21.124Z,16.58
2022-08-28T05:10:47.680Z,15.52
2022-08-28T05:13:15.483Z,18.40
2022-08-28T05:15:45.998Z,17.13
2022-08-28T05:18:14.227Z,17.63
2022-08-28T05:20:41.676Z,17.50
2022-08-28T05:23:09.412Z,17.23
2022-08-28T05:25:39.699Z,16.83
2022-08-28T05:28:06.633Z,15.65
2022-08-28T05:30:38.755Z,16.65
2022-08-28T05:33:05.346Z,16.75
2022-08-28T05:35:35.521Z,16.60
2022-08-28T05:38:02.022Z,14.93
2022-08-28T05:40:28.593Z,15.35
2022-08-28T05:42:56.116Z,14.90
2022-08-28T05:45:22.846Z,18.33
2022-08-28T05:47:49.375Z,15.68
2022-08-28T05:50:15.853Z,16.13
2022-08-28T05:52:42.768Z,15.38
2022-08-28T05:55:09.585Z,16.65
2022-08-28T05:57:36.071Z,13.93
2022-08-28T06:00:03.152Z,16.40
2022-08-28T06:02:29.591Z,15.90
2022-08-28T06:04:56.213Z,14.75
2022-08-28T06:07:22.692Z,14.07
2022-08-28T06:09:49.247Z,14.43
2022-08-28T06:12:16.837Z,15.13
2022-08-28T06:14:44.909Z,12.88
2022-08-28T06:17:11.501Z,13.48
2022-08-28T06:19:41.405Z,12.82
2022-08-28T06:22:09.631Z,13.55
2022-08-28T06:24:36.131Z,16.15
2022-08-28T06:27:02.603Z,14.43
2022-08-28T06:29:29.302Z,15.18
2022-08-28T06:31:59.846Z,14.63
2022-08-28T06:34:26.563Z,14.93
2022-08-28T06:36:54.333Z,16.05
2022-08-28T06:39:21.144Z,18.70
2022-08-28T06:41:47.650Z,16.05
2022-08-28T06:44:14.987Z,18.08
2022-08-28T06:46:41.630Z,21.65
2022-08-28T06:49:08.180Z,22.50
2022-08-28T06:51:35.024Z,16.58
2022-08-28T06:54:01.970Z,17.25
2022-08-28T06:56:28.464Z,19.77
2022-08-28T06:58:55.750Z,18.17
2022-08-28T07:01:24.365Z,19.20
2022-08-28T07:03:51.622Z,20.15
2022-08-28T07:06:18.178Z,22.95
2022-08-28T07:08:44.886Z,23.25
2022-08-28T07:11:30.417Z,27.13
2022-08-28T07:13:57.117Z,29.48
2022-08-28T07:16:25.125Z,26.10
2022-08-28T07:18:51.739Z,30.42
2022-08-28T07:21:18.349Z,25.35
2022-08-28T07:23:45.045Z,26.48
2022-08-28T07:26:12.754Z,25.75
2022-08-28T07:28:39.561Z,30.88
2022-08-28T07:31:07.284Z,31.63
2022-08-28T07:33:33.849Z,30.95
2022-08-28T07:36:00.498Z,32.45
2022-08-28T07:38:27.124Z,29.67
2022-08-28T07:40:53.913Z,24.45
2022-08-28T07:43:39.181Z,30.23
2022-08-28T07:46:07.359Z,24.75
2022-08-28T07:48:35.517Z,31.00
2022-08-28T07:51:05.354Z,32.25
2022-08-28T07:53:36.354Z,28.48
2022-08-28T07:56:03.560Z,25.65
2022-08-28T07:58:30.081Z,26.10
2022-08-28T08:00:57.467Z,30.98
2022-08-28T08:03:25.751Z,31.70
2022-08-28T08:05:55.932Z,24.40
2022-08-28T08:08:22.455Z,22.30
2022-08-28T08:10:59.302Z,26.25
2022-08-28T08:13:26.147Z,24.58
2022-08-28T08:15:53.129Z,24.73
2022-08-28T08:18:19.777Z,23.23
2022-08-28T08:20:49.797Z,26.20
2022-08-28T08:23:16.265Z,24.48
2022-08-28T08:25:42.738Z,21.33
2022-08-28T08:28:09.539Z,23.85
2022-08-28T08:30:36.267Z,19.52
2022-08-28T08:33:02.748Z,21.73
2022-08-28T08:35:29.519Z,21.60
2022-08-28T08:37:57.178Z,19.73
2022-08-28T08:40:26.180Z,20.60
2022-08-28T08:42:55.815Z,20.77
2022-08-28T08:45:26.658Z,18.00
2022-08-28T08:47:53.387Z,18.02
2022-08-28T08:50:20.602Z,18.63
2022-08-28T08:53:03.157Z,21.20
2022-08-28T08:55:36.522Z,23.95
2022-08-28T08:58:07.200Z,17.67
2022-08-28T09:00:40.093Z,17.42
2022-08-28T09:03:12.248Z,18.30
2022-08-28T09:05:58.670Z,17.33
2022-08-28T09:08:32.635Z,17.77
2022-08-28T09:11:03.852Z,16.90
2022-08-28T09:13:39.721Z,12.35
2022-08-28T09:16:06.582Z,18.88
2022-08-28T09:18:33.242Z,15.60
2022-08-28T09:21:00.371Z,14.73
2022-08-28T09:23:29.942Z,19.05
2022-08-28T09:25:59.799Z,17.40
2022-08-28T09:28:32.814Z,18.80
2022-08-28T09:30:59.455Z,16.48
2022-08-28T09:33:45.354Z,13.27
2022-08-28T09:36:21.230Z,13.27
2022-08-28T09:38:47.703Z,18.80
2022-08-28T09:41:32.835Z,16.35
2022-08-28T09:43:59.297Z,19.02
2022-08-28T09:46:29.689Z,20.42
2022-08-28T09:49:12.947Z,21.83
2022-08-28T09:51:40.004Z,18.33
2022-08-28T09:54:09.165Z,14.45
2022-08-28T09:56:36.084Z,22.67
2022-08-28T09:59:05.805Z,17.40
2022-08-28T10:01:55.591Z,19.08
2022-08-28T10:04:31.580Z,16.23
2022-08-28T10:07:01.166Z,15.88
2022-08-28T10:09:40.291Z,16.58
2022-08-28T10:12:16.526Z,20.65
2022-08-28T10:14:46.110Z,15.80
2022-08-28T10:17:19.815Z,22.20
2022-08-28T10:20:07.047Z,16.50
2022-08-28T10:22:33.645Z,15.60
2022-08-28T10:25:03.212Z,17.08
2022-08-28T10:27:56.234Z,13.32
2022-08-28T10:30:23.242Z,16.42
2022-08-28T10:32:49.699Z,15.13
2022-08-28T10:35:35.135Z,15.73
2022-08-28T10:38:06.899Z,14.75
2022-08-28T10:40:59.863Z,17.20
2022-08-28T10:43:31.054Z,12.10
2022-08-28T10:46:10.410Z,17.75
2022-08-28T10:48:40.736Z,19.70
2022-08-28T10:51:07.859Z,19.60
2022-08-28T10:53:44.732Z,16.63
2022-08-28T10:56:18.421Z,18.02
2022-08-28T10:58:45.055Z,15.65
2022-08-28T11:01:13.313Z,15.45
2022-08-28T11:03:43.921Z,15.25
2022-08-28T11:06:15.452Z,18.20
2022-08-28T11:08:41.946Z,16.27
2022-08-28T11:11:14.925Z,17.23
2022-08-28T11:13:53.698Z,16.55
2022-08-28T11:16:24.760Z,20.92
2022-08-28T11:18:57.920Z,16.33
2022-08-28T11:21:26.476Z,17.65
2022-08-28T11:24:20.701Z,17.00
2022-08-28T11:26:49.025Z,18.15
2022-08-28T11:29:34.601Z,17.25
2022-08-28T11:32:19.951Z,18.73
2022-08-28T11:34:56.198Z,19.20
2022-08-28T11:37:41.400Z,17.75
2022-08-28T11:40:26.664Z,17.70
2022-08-28T11:42:53.233Z,18.20
2022-08-28T11:45:20.631Z,18.05
2022-08-28T11:47:48.397Z,21.00
2022-08-28T11:50:16.788Z,17.27
2022-08-28T11:52:46.446Z,17.88
2022-08-28T11:55:17.141Z,17.73
2022-08-28T11:57:49.678Z,17.05
2022-08-28T12:00:38.488Z,20.75
2022-08-28T12:03:09.052Z,15.05
2022-08-28T12:05:36.710Z,18.17
2022-08-28T12:08:03.366Z,18.48
2022-08-28T12:10:34.617Z,14.57
2022-08-28T12:13:07.887Z,17.77
2022-08-28T12:15:34.500Z,15.95
2022-08-28T12:18:03.791Z,14.40
2022-08-28T12:20:48.869Z,12.82
2022-08-28T12:23:29.783Z,12.25
2022-08-28T12:26:05.685Z,15.23
2022-08-28T12:28:33.615Z,14.85
2022-08-28T12:31:06.256Z,13.65
2022-08-28T12:33:34.760Z,12.27
2022-08-28T12:36:02.368Z,13.30
2022-08-28T12:38:29.160Z,12.95
2022-08-28T12:40:56.032Z,11.60
2022-08-28T12:43:36.030Z,12.00
2022-08-28T12:46:19.479Z,12.60
2022-08-28T12:48:59.869Z,11.82
2022-08-28T12:51:27.872Z,9.98
2022-08-28T12:53:55.535Z,13.13
2022-08-28T12:56:22.578Z,13.77
2022-08-28T12:58:49.183Z,14.73
2022-08-28T13:01:28.681Z,14.02
2022-08-28T13:04:02.487Z,11.18
2022-08-28T13:06:38.704Z,7.95
2022-08-28T13:09:15.571Z,5.80
2022-08-28T13:11:45.255Z,3.95
2022-08-28T13:14:11.731Z,6.05
2022-08-28T13:16:38.405Z,6.53
2022-08-28T13:19:04.949Z,10.38
2022-08-28T13:21:34.867Z,4.85
2022-08-28T13:24:24.271Z,6.53
2022-08-28T13:26:51.573Z,5.18
2022-08-28T13:29:22.333Z,4.35
2022-08-28T13:31:56.316Z,5.03
2022-08-28T13:34:26.624Z,5.25
2022-08-28T13:36:54.238Z,5.13
2022-08-28T13:39:21.187Z,5.70
2022-08-28T13:41:48.511Z,6.32
2022-08-28T13:44:34.673Z,8.20
2022-08-28T13:47:02.080Z,9.63
2022-08-28T13:49:28.710Z,8.13
2022-08-28T13:51:56.049Z,12.07
2022-08-28T13:54:23.080Z,11.32
2022-08-28T13:56:52.058Z,9.52
2022-08-28T13:59:19.935Z,10.68
2022-08-28T14:02:05.298Z,10.63
2022-08-28T14:04:32.477Z,16.15
2022-08-28T14:06:59.239Z,14.68
2022-08-28T14:09:27.358Z,14.27
2022-08-28T14:11:55.479Z,11.75
2022-08-28T14:14:22.070Z,11.68
2022-08-28T14:16:50.918Z,10.52
2022-08-28T14:19:17.485Z,13.05
2022-08-28T14:21:44.031Z,11.20
2022-08-28T14:24:10.552Z,11.65
2022-08-28T14:26:37.770Z,10.65
2022-08-28T14:29:05.393Z,9.95
2022-08-28T14:31:32.194Z,10.88
2022-08-28T14:33:58.753Z,10.25
2022-08-28T14:36:26.247Z,11.20
2022-08-28T14:38:54.358Z,11.70
2022-08-28T14:41:21.645Z,11.60
2022-08-28T14:43:49.611Z,11.07
2022-08-28T14:46:16.738Z,10.35
2022-08-28T14:48:43.481Z,12.27
2022-08-28T14:51:09.941Z,12.35
2022-08-28T14:53:37.429Z,12.25
2022-08-28T14:56:05.414Z,12.73
2022-08-28T14:58:34.163Z,12.68
2022-08-28T15:01:00.764Z,15.65
2022-08-28T15:03:27.371Z,11.93
2022-08-28T15:06:09.458Z,9.15
2022-08-28T15:08:36.892Z,7.32
2022-08-28T15:11:10.043Z,8.15
2022-08-28T15:13:36.704Z,6.63
2022-08-28T15:16:05.868Z,9.00
2022-08-28T15:18:42.343Z,9.77
2022-08-28T15:21:14.699Z,9.43
2022-08-28T15:23:42.955Z,10.07
2022-08-28T15:26:15.110Z,11.75
2022-08-28T15:28:41.956Z,9.77
2022-08-28T15:31:08.496Z,10.98
2022-08-28T15:33:35.078Z,11.40
2022-08-28T15:36:01.597Z,9.70
2022-08-28T15:38:28.191Z,9.57
2022-08-28T15:41:13.530Z,9.65
2022-08-28T15:43:40.313Z,8.55
2022-08-28T15:46:14.275Z,8.68
2022-08-28T15:48:40.872Z,8.50
2022-08-28T15:51:08.116Z,7.63
2022-08-28T15:53:34.703Z,8.23
2022-08-28T15:56:02.567Z,7.95
2022-08-28T15:58:29.506Z,8.82
2022-08-28T16:00:56.018Z,7.75
2022-08-28T16:03:22.791Z,8.38
2022-08-28T16:05:49.301Z,8.10
2022-08-28T16:08:15.999Z,7.72
2022-08-28T16:10:46.941Z,8.82
2022-08-28T16:13:13.784Z,8.35
2022-08-28T16:15:40.418Z,8.77
2022-08-28T16:18:09.097Z,8.90
2022-08-28T16:20:36.462Z,9.63
2022-08-28T16:23:03.033Z,8.70
2022-08-28T16:25:29.512Z,7.45
2022-08-28T16:27:56.664Z,6.50
2022-08-28T16:30:24.533Z,6.70
2022-08-28T16:32:51.177Z,6.22
2022-08-28T16:35:17.764Z,6.95
2022-08-28T16:37:44.301Z,6.45
2022-08-28T16:40:11.114Z,7.00
2022-08-28T16:42:37.970Z,7.03
2022-08-28T16:45:05.132Z,7.00
2022-08-28T16:47:32.155Z,6.88
2022-08-28T16:49:59.252Z,9.48
2022-08-28T16:52:26.334Z,12.30
2022-08-28T16:54:52.889Z,8.23
2022-08-28T16:57:19.722Z,8.93
2022-08-28T16:59:46.357Z,8.00
2022-08-28T17:02:13.489Z,7.68
2022-08-28T17:04:40.112Z,7.82
2022-08-28T17:07:06.640Z,8.00
2022-08-28T17:09:33.161Z,8.23
2022-08-28T17:12:00.222Z,7.80
2022-08-28T17:14:27.353Z,9.05
2022-08-28T17:16:53.910Z,8.48
2022-08-28T17:19:21.088Z,8.52
2022-08-28T17:22:06.392Z,10.30
2022-08-28T17:24:32.992Z,11.52
2022-08-28T17:27:05.255Z,10.48
2022-08-28T17:29:32.308Z,9.55
2022-08-28T17:31:58.874Z,10.52
2022-08-28T17:34:29.991Z,9.15
2022-08-28T17:36:57.117Z,9.00
2022-08-28T17:39:25.395Z,9.57
2022-08-28T17:41:52.145Z,9.90
2022-08-28T17:44:18.834Z,9.35
2022-08-28T17:46:45.970Z,8.82
2022-08-28T17:49:12.615Z,8.75
2022-08-28T17:51:43.314Z,9.10
2022-08-28T17:54:14.737Z,10.52
2022-08-28T17:56:41.373Z,9.70
2022-08-28T17:59:07.871Z,9.32
2022-08-28T18:01:34.512Z,9.63
2022-08-28T18:04:01.194Z,11.68
2022-08-28T18:06:27.840Z,10.75
2022-08-28T18:08:54.631Z,10.73
2022-08-28T18:11:21.127Z,9.88
2022-08-28T18:13:47.977Z,9.73
2022-08-28T18:16:14.499Z,9.60
2022-08-28T18:18:41.601Z,7.88
2022-08-28T18:21:11.488Z,9.85
2022-08-28T18:23:39.691Z,10.23
2022-08-28T18:26:06.728Z,11.45
2022-08-28T18:28:33.584Z,11.55
2022-08-28T18:31:01.163Z,11.57
2022-08-28T18:33:27.726Z,11.30
2022-08-28T18:35:54.376Z,10.20
2022-08-28T18:38:21.989Z,9.18
2022-08-28T18:40:48.634Z,10.25
2022-08-28T18:43:15.240Z,9.65
2022-08-28T18:45:41.788Z,10.20
2022-08-28T18:48:08.319Z,13.73
2022-08-28T18:50:35.659Z,9.73
2022-08-28T18:53:02.321Z,8.50
2022-08-28T18:55:29.391Z,9.73
2022-08-28T18:57:58.118Z,9.32
2022-08-28T19:00:25.407Z,10.63
2022-08-28T19:02:52.220Z,8.65
2022-08-28T19:05:19.177Z,7.63
2022-08-28T19:07:45.690Z,7.43
2022-08-28T19:10:32.090Z,8.65
2022-08-28T19:12:58.920Z,6.32
2022-08-28T19:15:25.548Z,7.35
2022-08-28T19:17:52.163Z,5.30
2022-08-28T19:20:19.875Z,6.88
2022-08-28T19:22:46.938Z,6.45
2022-08-28T19:25:25.739Z,6.63
2022-08-28T19:27:58.939Z,7.80
2022-08-28T19:30:26.649Z,7.65
2022-08-28T19:32:53.459Z,7.68
2022-08-28T19:35:20.147Z,8.23
2022-08-28T19:37:51.109Z,6.13
2022-08-28T19:40:17.742Z,8.65
2022-08-28T19:42:44.436Z,8.40
2022-08-28T19:45:12.524Z,8.20
2022-08-28T19:47:39.650Z,8.98
2022-08-28T19:50:08.680Z,8.88
2022-08-28T19:52:36.708Z,7.93
2022-08-28T19:55:05.840Z,8.27
2022-08-28T19:57:32.793Z,8.95
2022-08-28T20:00:00.285Z,5.85
2022-08-28T20:02:28.719Z,7.80
2022-08-28T20:04:55.515Z,8.27
2022-08-28T20:07:22.427Z,7.25
2022-08-28T20:09:49.117Z,6.90
2022-08-28T20:12:15.684Z,7.75
2022-08-28T20:14:42.718Z,8.52
2022-08-28T20:17:09.364Z,7.25
2022-08-28T20:19:36.117Z,7.78
2022-08-28T20:22:03.957Z,7.25
2022-08-28T20:24:30.910Z,6.68
2022-08-28T20:26:57.488Z,7.78
2022-08-28T20:29:24.398Z,7.68
2022-08-28T20:31:51.154Z,6.88
2022-08-28T20:34:17.966Z,6.30
2022-08-28T20:36:44.462Z,6.72
2022-08-28T20:39:11.051Z,6.88
2022-08-28T20:41:38.102Z,7.57
2022-08-28T20:44:08.133Z,8.13
2022-08-28T20:46:40.053Z,9.02
2022-08-28T20:49:08.637Z,7.25
2022-08-28T20:51:53.350Z,7.40
2022-08-28T20:54:23.869Z,7.85
2022-08-28T20:56:51.052Z,6.32
2022-08-28T20:59:17.846Z,8.85
2022-08-28T21:01:44.405Z,7.85
2022-08-28T21:04:10.996Z,7.85
2022-08-28T21:06:38.406Z,8.60
2022-08-28T21:09:04.919Z,6.78
2022-08-28T21:11:31.406Z,7.43
2022-08-28T21:13:57.929Z,8.48
2022-08-28T21:16:24.497Z,9.57
2022-08-28T21:19:14.008Z,8.38
2022-08-28T21:21:37.857Z,7.25
2022-08-28T21:24:04.694Z,6.85
2022-08-28T21:26:31.230Z,9.13
2022-08-28T21:28:57.774Z,8.35
2022-08-28T21:31:24.295Z,7.93
2022-08-28T21:33:50.941Z,7.25
2022-08-28T21:36:17.936Z,11.85
2022-08-28T21:38:45.017Z,9.63
2022-08-28T21:41:12.520Z,8.70
2022-08-28T21:43:39.412Z,9.63
2022-08-28T21:46:06.625Z,11.75
2022-08-28T21:48:33.262Z,8.93
2022-08-28T21:50:59.839Z,8.40
2022-08-28T21:53:27.682Z,13.00
2022-08-28T21:55:54.520Z,11.80
2022-08-28T21:58:21.441Z,8.90
2022-08-28T22:00:51.895Z,11.40
2022-08-28T22:03:18.510Z,10.20
2022-08-28T22:05:45.196Z,11.60
2022-08-28T22:08:11.981Z,11.40
2022-08-28T22:10:42.047Z,14.07
2022-08-28T22:13:08.799Z,10.98
2022-08-28T22:15:35.753Z,12.75
2022-08-28T22:18:02.591Z,11.65
2022-08-28T22:20:29.164Z,12.65
2022-08-28T22:23:14.322Z,14.52
2022-08-28T22:25:41.587Z,19.02
2022-08-28T22:28:08.303Z,14.25
2022-08-28T22:30:34.881Z,21.42
2022-08-28T22:33:01.669Z,12.93
2022-08-28T22:35:28.276Z,14.50
2022-08-28T22:37:55.048Z,14.43
2022-08-28T22:40:21.959Z,15.80
2022-08-28T22:42:48.499Z,15.75
2022-08-28T22:45:15.549Z,17.80
2022-08-28T22:47:42.053Z,16.15
2022-08-28T22:50:09.309Z,13.57
2022-08-28T22:52:35.799Z,15.18
2022-08-28T22:55:02.281Z,15.70
2022-08-28T22:57:28.820Z,14.63
2022-08-28T22:59:55.374Z,14.77
2022-08-28T23:02:22.872Z,18.50
2022-08-28T23:04:53.911Z,16.67
2022-08-28T23:07:20.393Z,15.50
2022-08-28T23:09:47.485Z,15.23
2022-08-28T23:12:13.987Z,12.32
2022-08-28T23:14:40.499Z,11.90
2022-08-28T23:17:07.375Z,12.95
2022-08-28T23:19:34.599Z,11.80
2022-08-28T23:22:01.201Z,13.40
2022-08-28T23:24:27.682Z,13.93
2022-08-28T23:26:54.175Z,12.55
2022-08-28T23:29:20.910Z,10.57
2022-08-28T23:31:47.923Z,14.18
2022-08-28T23:34:14.615Z,12.68
2022-08-28T23:36:43.351Z,11.05
2022-08-28T23:39:10.104Z,12.77
2022-08-28T23:41:36.556Z,14.27
2022-08-28T23:44:08.563Z,11.18
2022-08-28T23:46:35.593Z,9.70
2022-08-28T23:49:02.453Z,12.07
2022-08-28T23:51:28.938Z,12.40
2022-08-28T23:53:55.422Z,13.25
2022-08-28T23:56:22.479Z,12.75
2022-08-28T23:58:54.599Z,10.55
